createdAt,value
2022-11-15T00:01:20.083Z,7.87
2022-11-15T00:03:47.856Z,8.67
2022-11-15T00:06:14.673Z,9.67
2022-11-15T00:08:41.418Z,8.97
2022-11-15T00:11:12.156Z,9.37
2022-11-15T00:13:39.084Z,9.10
2022-11-15T00:16:06.125Z,9.20
2022-11-15T00:18:33.075Z,10.57
2022-11-15T00:21:10.210Z,9.27
2022-11-15T00:23:37.282Z,9.33
2022-11-15T00:26:04.135Z,8.90
2022-11-15T00:28:31.627Z,9.67
2022-11-15T00:31:04.993Z,8.93
2022-11-15T00:33:34.795Z,8.53
2022-11-15T00:36:12.689Z,8.27
2022-11-15T00:38:40.873Z,8.93
2022-11-15T00:41:09.966Z,8.03
2022-11-15T00:43:38.665Z,8.50
2022-11-15T00:46:05.531Z,8.27
2022-11-15T00:48:33.882Z,8.77
2022-11-15T00:51:00.692Z,8.80
2022-11-15T00:53:27.769Z,10.20
2022-11-15T00:55:54.540Z,9.63
2022-11-15T00:58:21.628Z,9.40
2022-11-15T01:00:50.039Z,10.90
2022-11-15T01:03:16.912Z,8.83
2022-11-15T01:05:43.899Z,8.20
2022-11-15T01:08:17.738Z,8.73
2022-11-15T01:10:44.736Z,8.90
2022-11-15T01:13:11.493Z,8.67
2022-11-15T01:15:42.096Z,9.43
2022-11-15T01:18:09.361Z,10.30
2022-11-15T01:20:42.023Z,7.30
2022-11-15T01:23:08.899Z,7.40
2022-11-15T01:25:35.635Z,7.70
2022-11-15T01:28:02.686Z,7.17
2022-11-15T01:30:29.482Z,7.80
2022-11-15T01:32:56.230Z,6.53
2022-11-15T01:35:23.244Z,7.57
2022-11-15T01:37:50.011Z,7.80
2022-11-15T01:40:17.100Z,6.93
2022-11-15T01:42:43.902Z,7.17
2022-11-15T01:45:17.947Z,7.13
2022-11-15T01:47:49.988Z,6.93
2022-11-15T01:50:22.551Z,7.90
2022-11-15T01:52:51.864Z,6.63
2022-11-15T01:55:26.174Z,7.70
2022-11-15T01:57:59.167Z,7.57
2022-11-15T02:00:25.998Z,7.67
2022-11-15T02:02:52.767Z,7.70
2022-11-15T02:05:19.884Z,8.30
2022-11-15T02:07:49.157Z,7.50
2022-11-15T02:10:21.704Z,6.90
2022-11-15T02:12:49.444Z,7.40
2022-11-15T02:15:17.088Z,7.30
2022-11-15T02:18:08.950Z,8.07
2022-11-15T02:20:53.834Z,6.60
2022-11-15T02:23:50.478Z,7.30
2022-11-15T02:26:22.987Z,7.30
2022-11-15T02:29:07.702Z,6.60
2022-11-15T02:31:40.251Z,6.60
2022-11-15T02:34:29.315Z,6.47
2022-11-15T02:37:11.397Z,6.80
2022-11-15T02:40:29.322Z,8.33
2022-11-15T02:43:29.195Z,7.43
2022-11-15T02:46:15.750Z,7.67
2022-11-15T02:48:44.409Z,8.10
2022-11-15T02:51:12.373Z,6.13
2022-11-15T02:53:39.126Z,7.30
2022-11-15T02:56:08.675Z,8.17
2022-11-15T02:59:04.474Z,7.20
2022-11-15T03:01:52.724Z,8.60
2022-11-15T03:04:34.467Z,7.73
2022-11-15T03:07:17.059Z,8.33
2022-11-15T03:10:07.195Z,8.37
2022-11-15T03:12:49.950Z,8.37
2022-11-15T03:15:25.232Z,8.90
2022-11-15T03:18:08.008Z,7.23
2022-11-15T03:20:37.268Z,7.70
2022-11-15T03:23:11.267Z,7.53
2022-11-15T03:25:45.942Z,7.43
2022-11-15T03:28:20.431Z,6.87
2022-11-15T03:30:49.167Z,6.60
2022-11-15T03:33:16.964Z,7.50
2022-11-15T03:35:47.176Z,7.37
2022-11-15T03:38:26.932Z,7.70
2022-11-15T03:41:17.262Z,8.43
2022-11-15T03:43:56.211Z,7.67
2022-11-15T03:46:34.931Z,8.80
2022-11-15T03:49:21.793Z,8.80
2022-11-15T03:51:48.670Z,8.57
2022-11-15T03:54:15.475Z,7.53
2022-11-15T03:56:42.525Z,6.93
2022-11-15T03:59:09.305Z,6.53
2022-11-15T04:01:36.156Z,7.47
2022-11-15T04:04:04.533Z,8.40
2022-11-15T04:06:31.307Z,7.77
2022-11-15T04:08:58.028Z,8.37
2022-11-15T04:11:25.080Z,8.50
2022-11-15T04:13:51.829Z,9.23
2022-11-15T04:16:18.695Z,10.33
2022-11-15T04:18:45.697Z,9.13
2022-11-15T04:21:33.864Z,10.40
2022-11-15T04:24:06.549Z,10.53
2022-11-15T04:26:34.423Z,10.03
2022-11-15T04:29:19.790Z,10.37
2022-11-15T04:31:46.513Z,10.27
2022-11-15T04:34:13.270Z,9.90
2022-11-15T04:36:58.845Z,9.60
2022-11-15T04:39:25.603Z,9.50
2022-11-15T04:41:52.340Z,10.20
2022-11-15T04:44:19.015Z,10.70
2022-11-15T04:46:46.036Z,10.70
2022-11-15T04:49:12.775Z,10.73
2022-11-15T04:51:39.482Z,10.07
2022-11-15T04:54:06.506Z,10.77
2022-11-15T04:56:33.261Z,10.47
2022-11-15T04:59:00.002Z,9.63
2022-11-15T05:01:29.635Z,10.17
2022-11-15T05:04:20.116Z,10.47
2022-11-15T05:06:52.010Z,9.83
2022-11-15T05:09:23.114Z,10.97
2022-11-15T05:11:49.897Z,9.70
2022-11-15T05:14:19.309Z,9.43
2022-11-15T05:16:46.084Z,8.70
2022-11-15T05:19:12.833Z,9.13
2022-11-15T05:21:43.977Z,8.70
2022-11-15T05:24:13.735Z,9.60
2022-11-15T05:26:40.495Z,9.63
2022-11-15T05:29:07.704Z,9.50
2022-11-15T05:31:34.441Z,7.93
2022-11-15T05:34:07.149Z,8.17
2022-11-15T05:36:39.732Z,7.80
2022-11-15T05:39:09.300Z,8.00
2022-11-15T05:41:45.113Z,8.53
2022-11-15T05:44:15.094Z,8.33
2022-11-15T05:46:45.566Z,8.43
2022-11-15T05:49:16.871Z,8.37
2022-11-15T05:51:47.306Z,8.27
2022-11-15T05:54:22.467Z,8.83
2022-11-15T05:56:50.337Z,9.40
2022-11-15T05:59:17.766Z,8.57
2022-11-15T06:01:44.968Z,8.77
2022-11-15T06:04:11.962Z,9.20
2022-11-15T06:06:40.314Z,10.10
2022-11-15T06:09:07.420Z,10.03
2022-11-15T06:11:34.109Z,9.97
2022-11-15T06:14:00.836Z,10.30
2022-11-15T06:16:27.813Z,9.40
2022-11-15T06:18:54.618Z,10.03
2022-11-15T06:21:21.805Z,8.70
2022-11-15T06:23:49.903Z,8.37
2022-11-15T06:26:16.687Z,10.03
2022-11-15T06:28:43.370Z,9.13
2022-11-15T06:31:12.396Z,7.97
2022-11-15T06:33:40.224Z,8.43
2022-11-15T06:36:17.739Z,9.30
2022-11-15T06:38:46.232Z,9.03
2022-11-15T06:41:18.532Z,8.80
2022-11-15T06:43:45.359Z,8.90
2022-11-15T06:46:12.419Z,9.40
2022-11-15T06:48:39.355Z,9.73
2022-11-15T06:51:09.536Z,9.40
2022-11-15T06:53:37.010Z,9.30
2022-11-15T06:56:06.495Z,9.50
2022-11-15T06:58:33.300Z,10.40
2022-11-15T07:01:09.085Z,13.77
2022-11-15T07:03:40.051Z,8.57
2022-11-15T07:06:08.015Z,9.87
2022-11-15T07:08:35.792Z,10.17
2022-11-15T07:11:04.968Z,11.80
2022-11-15T07:13:39.677Z,14.73
2022-11-15T07:16:09.036Z,12.83
2022-11-15T07:18:37.498Z,14.03
2022-11-15T07:21:10.914Z,14.73
2022-11-15T07:23:39.806Z,10.60
2022-11-15T07:26:07.970Z,9.10
2022-11-15T07:28:35.837Z,9.33
2022-11-15T07:31:08.932Z,8.00
2022-11-15T07:33:36.564Z,8.20
2022-11-15T07:36:05.381Z,9.07
2022-11-15T07:38:35.729Z,9.67
2022-11-15T07:41:08.058Z,10.53
2022-11-15T07:43:35.779Z,10.90
2022-11-15T07:46:10.199Z,12.00
2022-11-15T07:48:44.541Z,11.77
2022-11-15T07:51:16.626Z,10.57
2022-11-15T07:53:44.593Z,10.37
2022-11-15T07:56:12.142Z,8.97
2022-11-15T07:58:40.192Z,7.97
2022-11-15T08:01:08.705Z,8.03
2022-11-15T08:03:35.774Z,8.20
2022-11-15T08:06:03.653Z,7.87
2022-11-15T08:08:30.370Z,8.43
2022-11-15T08:11:00.729Z,8.67
2022-11-15T08:13:27.884Z,9.40
2022-11-15T08:16:00.380Z,8.07
2022-11-15T08:18:27.115Z,9.13
2022-11-15T08:20:54.137Z,8.40
2022-11-15T08:23:20.808Z,8.80
2022-11-15T08:25:47.484Z,8.07
2022-11-15T08:28:14.477Z,8.27
2022-11-15T08:30:46.302Z,8.93
2022-11-15T08:33:15.031Z,8.20
2022-11-15T08:35:43.225Z,8.33
2022-11-15T08:38:09.919Z,8.10
2022-11-15T08:40:37.758Z,8.17
2022-11-15T08:43:05.056Z,8.07
2022-11-15T08:45:32.383Z,10.90
2022-11-15T08:48:02.769Z,8.40
2022-11-15T08:50:29.719Z,9.00
2022-11-15T08:52:56.361Z,11.00
2022-11-15T08:55:26.004Z,9.10
2022-11-15T08:57:52.974Z,10.00
2022-11-15T09:00:21.058Z,8.40
2022-11-15T09:02:48.664Z,9.30
2022-11-15T09:05:16.577Z,8.73
2022-11-15T09:07:43.576Z,7.53
2022-11-15T09:10:10.502Z,7.30
2022-11-15T09:12:37.391Z,7.97
2022-11-15T09:15:06.907Z,8.10
2022-11-15T09:17:33.553Z,8.17
2022-11-15T09:20:00.249Z,8.43
2022-11-15T09:22:27.375Z,8.87
2022-11-15T09:24:54.043Z,8.73
2022-11-15T09:27:20.737Z,9.37
2022-11-15T09:29:48.897Z,9.70
2022-11-15T09:32:15.537Z,8.00
2022-11-15T09:34:42.198Z,6.50
2022-11-15T09:37:08.919Z,6.47
2022-11-15T09:39:36.550Z,6.80
2022-11-15T09:42:27.068Z,6.30
2022-11-15T09:45:17.045Z,5.77
2022-11-15T09:48:21.573Z,6.77
2022-11-15T09:50:50.700Z,6.23
2022-11-15T09:54:37.946Z,6.43
2022-11-15T09:56:49.256Z,5.60
2022-11-15T09:59:23.499Z,6.20
2022-11-15T10:02:11.762Z,6.87
2022-11-15T10:04:40.720Z,5.70
2022-11-15T10:07:46.124Z,5.67
2022-11-15T10:10:31.765Z,5.53
2022-11-15T10:12:59.878Z,5.73
2022-11-15T10:15:27.216Z,7.33
2022-11-15T10:18:30.123Z,6.70
2022-11-15T10:21:01.003Z,6.03
2022-11-15T10:23:29.495Z,5.63
2022-11-15T10:26:03.688Z,5.97
2022-11-15T10:28:33.841Z,5.50
2022-11-15T10:31:05.634Z,5.83
2022-11-15T10:33:35.039Z,5.73
2022-11-15T10:36:13.694Z,5.90
2022-11-15T10:38:49.817Z,5.60
2022-11-15T10:41:17.711Z,5.53
2022-11-15T10:43:47.068Z,5.23
2022-11-15T10:46:45.754Z,5.47
2022-11-15T10:49:20.667Z,5.10
2022-11-15T10:51:55.277Z,5.60
2022-11-15T10:54:44.342Z,5.03
2022-11-15T10:57:38.949Z,4.50
2022-11-15T11:00:31.135Z,4.33
2022-11-15T11:02:58.126Z,4.40
2022-11-15T11:05:41.361Z,4.20
2022-11-15T11:08:12.063Z,4.57
2022-11-15T11:11:00.202Z,4.50
2022-11-15T11:13:30.833Z,4.17
2022-11-15T11:16:15.669Z,4.13
2022-11-15T11:18:57.359Z,4.50
2022-11-15T11:21:47.052Z,3.87
2022-11-15T11:24:46.642Z,4.10
2022-11-15T11:27:35.139Z,4.33
2022-11-15T11:30:11.431Z,4.57
2022-11-15T11:33:05.580Z,3.37
2022-11-15T11:36:04.504Z,3.20
2022-11-15T11:38:45.077Z,3.50
2022-11-15T11:41:31.072Z,3.73
2022-11-15T11:44:07.226Z,3.57
2022-11-15T11:46:57.792Z,3.50
2022-11-15T11:49:33.783Z,3.40
2022-11-15T11:52:11.132Z,3.57
2022-11-15T11:54:57.727Z,3.40
2022-11-15T11:58:09.341Z,3.10
2022-11-15T12:00:42.728Z,3.20
2022-11-15T12:03:37.109Z,3.50
2022-11-15T12:06:20.524Z,3.50
2022-11-15T12:08:54.881Z,3.10
2022-11-15T12:11:57.833Z,3.17
2022-11-15T12:14:24.763Z,3.80
2022-11-15T12:16:52.188Z,3.40
2022-11-15T12:19:18.869Z,3.67
2022-11-15T12:22:11.996Z,3.40
2022-11-15T12:24:42.054Z,4.07
2022-11-15T12:27:26.583Z,3.37
2022-11-15T12:30:04.552Z,3.73
2022-11-15T12:32:40.058Z,3.23
2022-11-15T12:35:27.497Z,3.80
2022-11-15T12:38:00.839Z,3.87
2022-11-15T12:40:31.906Z,4.33
2022-11-15T12:43:03.715Z,3.80
2022-11-15T12:45:39.484Z,3.47
2022-11-15T12:48:37.670Z,3.40
2022-11-15T12:51:05.227Z,3.97
2022-11-15T12:53:36.094Z,3.20
2022-11-15T12:56:18.077Z,3.30
2022-11-15T12:58:55.373Z,3.20
2022-11-15T13:01:36.446Z,2.87
2022-11-15T13:04:25.712Z,3.23
2022-11-15T13:06:58.951Z,3.30
2022-11-15T13:09:34.910Z,3.67
2022-11-15T13:12:04.589Z,2.87
2022-11-15T13:14:51.108Z,4.10
2022-11-15T13:17:21.097Z,3.90
2022-11-15T13:19:53.417Z,3.50
2022-11-15T13:22:38.511Z,3.57
2022-11-15T13:25:17.585Z,3.40
2022-11-15T13:27:46.116Z,3.33
2022-11-15T13:30:32.350Z,3.53
2022-11-15T13:33:09.543Z,3.30
2022-11-15T13:35:41.004Z,3.50
2022-11-15T13:38:08.033Z,3.50
2022-11-15T13:40:39.017Z,3.50
2022-11-15T13:43:24.109Z,3.10
2022-11-15T13:46:15.197Z,2.70
2022-11-15T13:48:43.855Z,2.30
2022-11-15T13:51:31.015Z,2.50
2022-11-15T13:54:04.100Z,2.27
2022-11-15T13:56:33.425Z,3.13
2022-11-15T13:59:00.431Z,2.50
2022-11-15T14:01:32.142Z,2.60
2022-11-15T14:04:01.572Z,3.37
2022-11-15T14:06:30.649Z,3.70
2022-11-15T14:09:17.335Z,3.20
2022-11-15T14:11:51.926Z,3.47
2022-11-15T14:14:24.513Z,3.80
2022-11-15T14:17:00.300Z,5.23
2022-11-15T14:19:27.360Z,3.73
2022-11-15T14:22:16.032Z,2.87
2022-11-15T14:24:46.980Z,3.70
2022-11-15T14:27:26.854Z,7.13
2022-11-15T14:29:54.786Z,6.93
2022-11-15T14:32:45.559Z,8.53
2022-11-15T14:35:19.212Z,10.17
2022-11-15T14:37:46.625Z,7.27
2022-11-15T14:40:22.799Z,5.03
2022-11-15T14:42:50.944Z,3.90
2022-11-15T14:45:20.891Z,9.37
2022-11-15T14:47:48.298Z,32.90
2022-11-15T14:50:17.823Z,17.00
2022-11-15T14:52:45.399Z,14.27
2022-11-15T14:55:30.827Z,6.70
2022-11-15T14:58:00.771Z,27.57
2022-11-15T15:00:32.363Z,14.57
2022-11-15T15:03:02.977Z,7.27
2022-11-15T15:05:34.616Z,6.60
2022-11-15T15:08:03.140Z,13.70
2022-11-15T15:10:42.245Z,34.30
2022-11-15T15:13:30.383Z,8.73
2022-11-15T15:15:57.108Z,9.20
2022-11-15T15:18:23.849Z,7.53
2022-11-15T15:20:58.607Z,7.10
2022-11-15T15:23:30.507Z,9.33
2022-11-15T15:25:57.888Z,10.10
2022-11-15T15:28:26.628Z,5.40
2022-11-15T15:30:55.450Z,5.43
2022-11-15T15:33:22.443Z,6.10
2022-11-15T15:35:52.252Z,5.40
2022-11-15T15:38:19.027Z,28.43
2022-11-15T15:40:45.982Z,17.43
2022-11-15T15:43:14.245Z,13.90
2022-11-15T15:45:42.993Z,22.97
2022-11-15T15:48:15.410Z,20.83
2022-11-15T15:50:46.385Z,15.03
2022-11-15T15:53:13.954Z,18.73
2022-11-15T15:55:40.689Z,26.90
2022-11-15T15:58:09.408Z,23.90
2022-11-15T16:00:37.812Z,24.30
2022-11-15T16:03:05.596Z,24.90
2022-11-15T16:05:32.385Z,22.40
2022-11-15T16:07:59.467Z,19.60
2022-11-15T16:10:29.131Z,23.47
2022-11-15T16:12:57.167Z,32.93
2022-11-15T16:15:26.269Z,27.40
2022-11-15T16:18:16.937Z,13.63
2022-11-15T16:20:51.218Z,14.90
2022-11-15T16:23:21.220Z,12.80
2022-11-15T16:25:49.097Z,11.87
2022-11-15T16:28:29.309Z,10.17
2022-11-15T16:31:03.355Z,10.30
2022-11-15T16:33:33.040Z,19.07
2022-11-15T16:36:00.100Z,14.50
2022-11-15T16:38:27.421Z,16.13
2022-11-15T16:40:54.195Z,10.97
2022-11-15T16:43:23.076Z,9.57
2022-11-15T16:45:51.900Z,9.77
2022-11-15T16:48:28.202Z,12.33
2022-11-15T16:50:59.567Z,10.07
2022-11-15T16:53:28.095Z,17.73
2022-11-15T16:55:56.307Z,12.23
2022-11-15T16:58:23.078Z,10.00
2022-11-15T17:00:53.955Z,9.40
2022-11-15T17:03:21.950Z,8.80
2022-11-15T17:05:51.926Z,9.90
2022-11-15T17:08:20.806Z,12.77
2022-11-15T17:10:47.696Z,15.63
2022-11-15T17:13:14.871Z,16.73
2022-11-15T17:15:41.644Z,20.33
2022-11-15T17:18:12.697Z,25.20
2022-11-15T17:20:41.899Z,66.13
2022-11-15T17:23:14.830Z,59.33
2022-11-15T17:25:42.110Z,27.77
2022-11-15T17:28:10.212Z,24.77
2022-11-15T17:30:36.921Z,51.37
2022-11-15T17:33:05.290Z,16.67
2022-11-15T17:35:31.994Z,21.50
2022-11-15T17:38:00.872Z,50.00
2022-11-15T17:40:27.612Z,53.20
2022-11-15T17:42:57.322Z,42.17
2022-11-15T17:45:23.981Z,44.40
2022-11-15T17:47:50.909Z,43.30
2022-11-15T17:50:17.945Z,42.57
2022-11-15T17:52:44.612Z,38.57
2022-11-15T17:55:11.606Z,37.33
2022-11-15T17:57:38.246Z,30.87
2022-11-15T18:00:06.291Z,23.77
2022-11-15T18:02:33.250Z,32.07
2022-11-15T18:04:59.934Z,38.27
2022-11-15T18:07:26.703Z,42.10
2022-11-15T18:09:53.992Z,38.23
2022-11-15T18:12:20.804Z,41.03
2022-11-15T18:14:47.555Z,29.03
2022-11-15T18:17:14.249Z,18.00
2022-11-15T18:19:40.902Z,10.60
2022-11-15T18:22:09.887Z,11.27
2022-11-15T18:24:38.916Z,19.30
2022-11-15T18:27:06.448Z,13.40
2022-11-15T18:29:34.669Z,12.43
2022-11-15T18:32:05.582Z,14.37
2022-11-15T18:34:34.381Z,20.33
2022-11-15T18:37:03.086Z,27.07
2022-11-15T18:39:30.047Z,26.57
2022-11-15T18:41:57.312Z,18.70
2022-11-15T18:44:23.971Z,12.40
2022-11-15T18:46:51.095Z,11.70
2022-11-15T18:49:19.914Z,11.53
2022-11-15T18:51:55.015Z,12.70
2022-11-15T18:54:26.745Z,16.93
2022-11-15T18:56:56.406Z,17.03
2022-11-15T18:59:23.319Z,17.00
2022-11-15T19:01:52.455Z,18.00
2022-11-15T19:04:21.043Z,19.37
2022-11-15T19:06:50.545Z,13.77
2022-11-15T19:09:19.033Z,13.43
2022-11-15T19:11:47.663Z,14.10
2022-11-15T19:14:16.457Z,14.33
2022-11-15T19:16:45.719Z,15.20
2022-11-15T19:19:15.078Z,14.07
2022-11-15T19:21:42.471Z,14.80
2022-11-15T19:24:10.731Z,13.70
2022-11-15T19:26:37.943Z,12.97
2022-11-15T19:29:06.615Z,14.40
2022-11-15T19:31:34.352Z,32.23
2022-11-15T19:34:04.968Z,23.47
2022-11-15T19:36:34.262Z,26.97
2022-11-15T19:39:08.418Z,24.60
2022-11-15T19:41:39.312Z,21.40
2022-11-15T19:44:07.168Z,15.77
2022-11-15T19:46:34.956Z,13.30
2022-11-15T19:49:02.347Z,12.87
2022-11-15T19:51:31.323Z,11.40
2022-11-15T19:54:06.869Z,11.57
2022-11-15T19:56:35.142Z,11.07
2022-11-15T19:59:03.277Z,11.17
2022-11-15T20:01:32.442Z,11.13
2022-11-15T20:04:00.378Z,10.87
2022-11-15T20:06:30.923Z,13.07
2022-11-15T20:08:58.534Z,11.80
2022-11-15T20:11:26.653Z,11.80
2022-11-15T20:13:58.750Z,12.33
2022-11-15T20:16:29.045Z,18.50
2022-11-15T20:18:56.098Z,17.80
2022-11-15T20:21:23.062Z,17.10
2022-11-15T20:23:51.626Z,22.43
2022-11-15T20:26:19.792Z,16.73
2022-11-15T20:28:48.167Z,15.23
2022-11-15T20:31:15.529Z,13.10
2022-11-15T20:33:42.521Z,11.40
2022-11-15T20:36:15.867Z,17.73
2022-11-15T20:38:45.817Z,13.97
2022-11-15T20:41:13.748Z,9.73
2022-11-15T20:43:43.701Z,15.07
2022-11-15T20:46:12.324Z,13.17
2022-11-15T20:48:39.629Z,12.50
2022-11-15T20:51:15.209Z,12.60
2022-11-15T20:53:45.533Z,13.07
2022-11-15T20:56:16.025Z,12.67
2022-11-15T20:58:44.947Z,15.97
2022-11-15T21:01:14.788Z,16.17
2022-11-15T21:03:42.072Z,15.93
2022-11-15T21:06:09.361Z,16.07
2022-11-15T21:08:54.662Z,13.10
2022-11-15T21:11:39.912Z,12.80
2022-11-15T21:14:09.444Z,10.43
2022-11-15T21:16:37.805Z,10.03
2022-11-15T21:19:09.617Z,9.70
2022-11-15T21:21:37.186Z,11.77
2022-11-15T21:24:06.341Z,11.27
2022-11-15T21:26:33.579Z,11.17
2022-11-15T21:29:02.772Z,12.03
2022-11-15T21:31:32.715Z,12.33
2022-11-15T21:34:02.844Z,11.47
2022-11-15T21:36:30.158Z,12.30
2022-11-15T21:38:56.892Z,11.80
2022-11-15T21:41:23.890Z,11.30
2022-11-15T21:43:50.774Z,12.03
2022-11-15T21:46:17.862Z,11.60
2022-11-15T21:48:44.589Z,11.40
2022-11-15T21:51:12.044Z,10.53
2022-11-15T21:53:38.783Z,10.43
2022-11-15T21:56:06.982Z,10.53
2022-11-15T21:58:34.320Z,10.83
2022-11-15T22:01:21.490Z,10.20
2022-11-15T22:03:48.659Z,10.70
2022-11-15T22:06:18.888Z,11.53
2022-11-15T22:08:46.310Z,10.27
2022-11-15T22:11:14.569Z,10.83
2022-11-15T22:13:41.520Z,10.27
2022-11-15T22:16:09.644Z,9.93
2022-11-15T22:18:37.455Z,10.90
2022-11-15T22:21:11.033Z,9.80
2022-11-15T22:23:38.109Z,9.73
2022-11-15T22:26:06.331Z,9.70
2022-11-15T22:28:33.772Z,9.97
2022-11-15T22:31:01.043Z,9.20
2022-11-15T22:33:32.302Z,9.70
2022-11-15T22:35:59.866Z,9.93
2022-11-15T22:38:27.461Z,10.53
2022-11-15T22:40:54.635Z,9.97
2022-11-15T22:43:23.278Z,8.47
2022-11-15T22:45:56.635Z,10.43
2022-11-15T22:48:27.180Z,9.57
2022-11-15T22:50:55.042Z,9.80
2022-11-15T22:53:21.974Z,10.40
2022-11-15T22:55:57.169Z,9.43
2022-11-15T22:58:29.921Z,9.60
2022-11-15T23:01:01.435Z,9.47
2022-11-15T23:03:29.606Z,9.37
2022-11-15T23:06:03.803Z,9.73
2022-11-15T23:08:31.054Z,11.43
2022-11-15T23:11:22.216Z,10.80
2022-11-15T23:13:53.475Z,11.10
2022-11-15T23:16:44.671Z,11.80
2022-11-15T23:19:13.389Z,12.87
2022-11-15T23:22:04.559Z,11.70
2022-11-15T23:24:32.984Z,9.93
2022-11-15T23:27:03.238Z,10.00
2022-11-15T23:29:30.981Z,10.57
2022-11-15T23:32:16.245Z,10.20
2022-11-15T23:34:45.112Z,8.83
2022-11-15T23:37:17.278Z,9.87
2022-11-15T23:39:44.319Z,10.33
2022-11-15T23:42:20.246Z,9.77
2022-11-15T23:44:51.125Z,10.00
2022-11-15T23:47:20.284Z,9.37
2022-11-15T23:49:47.359Z,9.40
2022-11-15T23:52:17.810Z,9.00
2022-11-15T23:54:44.626Z,9.10
2022-11-15T23:57:13.051Z,8.93
2022-11-15T23:59:43.903Z,9.10
